Time,TemperatureF,DewpointF,PressureIn,WindDirection,WindDirectionDegrees,WindSpeedMPH,WindSpeedGustMPH,Humidity,HourlyPrecipIn,Conditions,Clouds,dailyrainin,SoftwareType,DateUTC
2013-01-11 00:03:00,34.2,32.3,29.41,NNE,24,0.0,0.0,93,0.00,,---,0.00,VWS V14.01,2013-01-11 08:03:00,
2013-01-11 00:08:00,34.0,32.2,29.41,NNE,24,0.0,0.0,93,0.00,,---,0.00,VWS V14.01,2013-01-11 08:08:00,
2013-01-11 00:13:00,33.8,32.0,29.41,NNE,24,0.0,0.0,93,0.00,,---,0.00,VWS V14.01,2013-01-11 08:13:00,
2013-01-11 00:18:00,33.6,31.8,29.41,NNE,24,0.0,0.0,93,0.00,,---,0.00,VWS V14.01,2013-01-11 08:18:00,
2013-01-11 00:23:00,33.3,31.5,29.41,NNE,24,0.0,0.0,93,0.00,,---,0.00,VWS V14.01,2013-01-11 08:23:00,
2013-01-11 00:28:00,33.3,31.5,29.41,NNE,24,0.0,0.0,93,0.00,,---,0.00,VWS V14.01,2013-01-11 08:28:00,
2013-01-11 00:33:00,33.1,31.3,29.41,NNE,24,0.0,0.0,93,0.00,,---,0.00,VWS V14.01,2013-01-11 08:33:00,
2013-01-11 00:38:00,33.1,31.3,29.41,NNE,24,0.0,0.0,93,0.00,,---,0.00,VWS V14.01,2013-01-11 08:38:00,
2013-01-11 00:43:00,33.3,31.5,29.41,NNE,24,0.0,0.0,93,0.00,,---,0.00,VWS V14.01,2013-01-11 08:43:00,
2013-01-11 00:48:00,33.1,31.3,29.41,NNE,24,0.0,0.0,93,0.00,,---,0.00,VWS V14.01,2013-01-11 08:48:00,
2013-01-11 00:53:00,33.1,31.3,29.41,NNE,24,0.0,0.0,93,0.00,,---,0.00,VWS V14.01,2013-01-11 08:53:00,
2013-01-11 00:58:00,33.1,31.5,29.41,NNE,24,0.0,0.0,94,0.00,,---,0.00,VWS V14.01,2013-01-11 08:58:00,
2013-01-11 01:03:00,33.3,31.7,29.41,NNE,24,0.0,0.0,94,0.00,,---,0.00,VWS V14.01,2013-01-11 09:03:00,
2013-01-11 01:08:00,33.3,31.7,29.41,NNE,24,0.0,0.0,94,0.00,,---,0.00,VWS V14.01,2013-01-11 09:08:00,
2013-01-11 01:13:00,33.3,31.7,29.41,NNE,24,0.0,0.0,94,0.00,,---,0.00,VWS V14.01,2013-01-11 09:13:00,
2013-01-11 01:18:00,33.3,31.7,29.41,NNE,24,0.0,0.0,94,0.00,,---,0.00,VWS V14.01,2013-01-11 09:18:00,
2013-01-11 01:23:00,33.3,31.7,29.41,NNE,24,0.0,0.0,94,0.00,,---,0.00,VWS V14.01,2013-01-11 09:23:00,
2013-01-11 01:28:00,33.3,31.7,29.41,NNE,24,0.0,0.0,94,0.00,,---,0.00,VWS V14.01,2013-01-11 09:28:00,
2013-01-11 01:33:00,33.3,31.7,29.41,NNE,24,0.0,0.0,94,0.00,,---,0.00,VWS V14.01,2013-01-11 09:33:00,
2013-01-11 01:38:00,33.3,31.7,29.41,NNE,24,0.0,0.0,94,0.00,,---,0.00,VWS V14.01,2013-01-11 09:38:00,
2013-01-11 01:43:00,33.3,31.7,29.41,NNE,24,0.0,0.0,94,0.00,,---,0.00,VWS V14.01,2013-01-11 09:43:00,
2013-01-11 01:48:00,33.1,31.5,29.41,NNE,24,0.0,0.0,94,0.00,,---,0.00,VWS V14.01,2013-01-11 09:48:00,
2013-01-11 01:53:00,32.9,31.4,29.41,NNE,24,0.0,0.0,94,0.00,,---,0.00,VWS V14.01,2013-01-11 09:53:00,
2013-01-11 01:58:00,33.1,31.5,29.41,NNE,24,0.0,0.0,94,0.00,,---,0.00,VWS V14.01,2013-01-11 09:58:00,
2013-01-11 02:03:00,32.9,31.4,29.41,NNE,24,0.0,0.0,94,0.00,,---,0.00,VWS V14.01,2013-01-11 10:03:00,
2013-01-11 02:08:00,32.9,31.4,29.41,NNE,24,0.0,0.0,94,0.00,,---,0.00,VWS V14.01,2013-01-11 10:08:00,
2013-01-11 02:13:00,32.7,31.2,29.41,NNE,24,0.0,0.0,94,0.00,,---,0.00,VWS V14.01,2013-01-11 10:13:00,
2013-01-11 02:18:00,32.7,31.2,29.41,NNE,24,0.0,0.0,94,0.00,,---,0.00,VWS V14.01,2013-01-11 10:18:00,
2013-01-11 02:23:00,32.5,31.0,29.41,NNE,24,0.0,0.0,94,0.00,,---,0.00,VWS V14.01,2013-01-11 10:23:00,
2013-01-11 02:28:00,32.5,31.0,29.41,NNE,24,0.0,0.0,94,0.00,,---,0.00,VWS V14.01,2013-01-11 10:28:00,
2013-01-11 02:33:00,32.4,30.8,29.41,NNE,24,0.0,0.0,94,0.00,,---,0.00,VWS V14.01,2013-01-11 10:33:00,
2013-01-11 02:38:00,32.4,30.8,29.41,NNE,24,0.0,0.0,94,0.00,,---,0.00,VWS V14.01,2013-01-11 10:38:00,
2013-01-11 02:43:00,32.5,31.3,29.41,NNE,24,0.0,0.0,95,0.00,,---,0.00,VWS V14.01,2013-01-11 10:43:00,
2013-01-11 02:48:00,32.5,31.3,29.41,NNE,24,0.0,0.0,95,0.00,,---,0.00,VWS V14.01,2013-01-11 10:48:00,
2013-01-11 02:53:00,32.5,31.3,29.41,NNE,24,0.0,0.0,95,0.00,,---,0.00,VWS V14.01,2013-01-11 10:53:00,
2013-01-11 02:58:00,32.7,31.5,29.41,NNE,24,0.0,0.0,95,0.00,,---,0.00,VWS V14.01,2013-01-11 10:58:00,
2013-01-11 03:03:00,32.7,31.5,29.41,NNE,24,0.0,0.0,95,0.00,,---,0.00,VWS V14.01,2013-01-11 11:03:00,
2013-01-11 03:08:00,32.7,31.5,29.44,NNE,24,0.0,0.0,95,0.00,,---,0.00,VWS V14.01,2013-01-11 11:08:00,
2013-01-11 03:13:00,32.9,31.6,29.44,NNE,24,0.0,0.0,95,0.00,,---,0.00,VWS V14.01,2013-01-11 11:13:00,
2013-01-11 03:18:00,33.1,31.8,29.44,NNE,24,0.0,0.0,95,0.00,,---,0.00,VWS V14.01,2013-01-11 11:18:00,
2013-01-11 03:23:00,33.1,31.8,29.41,NNE,24,0.0,0.0,95,0.00,,---,0.00,VWS V14.01,2013-01-11 11:23:00,
2013-01-11 03:28:00,33.1,31.8,29.41,NNE,24,0.0,0.0,95,0.00,,---,0.00,VWS V14.01,2013-01-11 11:28:00,
2013-01-11 03:33:00,33.1,31.8,29.41,NNE,24,0.0,0.0,95,0.00,,---,0.00,VWS V14.01,2013-01-11 11:33:00,
2013-01-11 03:38:00,33.1,31.8,29.41,NNE,24,0.0,0.0,95,0.00,,---,0.00,VWS V14.01,2013-01-11 11:38:00,
2013-01-11 03:43:00,32.7,31.5,29.41,NNE,24,0.0,0.0,95,0.00,,---,0.00,VWS V14.01,2013-01-11 11:43:00,
2013-01-11 03:48:00,32.5,31.3,29.41,NNE,24,0.0,0.0,95,0.00,,---,0.00,VWS V14.01,2013-01-11 11:48:00,
2013-01-11 03:52:00,32.4,31.1,29.41,NNE,24,0.0,0.0,95,0.00,,---,0.00,VWS V14.01,2013-01-11 11:52:00,
2013-01-11 03:57:00,32.2,30.9,29.41,NNE,24,0.0,0.0,95,0.00,,---,0.00,VWS V14.01,2013-01-11 11:57:00,
2013-01-11 04:02:00,32.2,30.9,29.41,NNE,24,0.0,0.0,95,0.00,,---,0.00,VWS V14.01,2013-01-11 12:02:00,
2013-01-11 04:07:00,32.0,30.7,29.41,NNE,24,0.0,0.0,95,0.00,,---,0.00,VWS V14.01,2013-01-11 12:07:00,
2013-01-11 04:12:00,31.8,30.5,29.41,NNE,24,0.0,0.0,95,0.00,,---,0.00,VWS V14.01,2013-01-11 12:12:00,
2013-01-11 04:17:00,31.8,30.5,29.41,NNE,24,0.0,0.0,95,0.00,,---,0.00,VWS V14.01,2013-01-11 12:17:00,
2013-01-11 04:22:00,31.6,30.4,29.41,NNE,24,0.0,0.0,95,0.00,,---,0.00,VWS V14.01,2013-01-11 12:22:00,
2013-01-11 04:27:00,31.5,30.2,29.41,NNE,24,0.0,0.0,95,0.00,,---,0.00,VWS V14.01,2013-01-11 12:27:00,
2013-01-11 04:32:00,31.3,30.0,29.41,NNE,24,0.0,0.0,95,0.00,,---,0.00,VWS V14.01,2013-01-11 12:32:00,
2013-01-11 04:37:00,31.1,29.8,29.44,NNE,24,0.0,0.0,95,0.00,,---,0.00,VWS V14.01,2013-01-11 12:37:00,
2013-01-11 04:42:00,31.1,29.8,29.44,NNE,24,0.0,0.0,95,0.00,,---,0.00,VWS V14.01,2013-01-11 12:42:00,
2013-01-11 04:47:00,31.1,29.8,29.44,NNE,24,0.0,0.0,95,0.00,,---,0.00,VWS V14.01,2013-01-11 12:47:00,
2013-01-11 04:52:00,31.3,30.0,29.41,NNE,24,0.0,0.0,95,0.00,,---,0.00,VWS V14.01,2013-01-11 12:52:00,
2013-01-11 04:57:00,31.5,30.5,29.41,NNE,24,0.0,0.0,96,0.00,,---,0.00,VWS V14.01,2013-01-11 12:57:00,
2013-01-11 05:02:00,31.6,30.6,29.41,NNE,24,0.0,0.0,96,0.00,,---,0.00,VWS V14.01,2013-01-11 13:02:00,
2013-01-11 05:07:00,31.6,30.6,29.41,NNE,24,0.0,0.0,96,0.00,,---,0.00,VWS V14.01,2013-01-11 13:07:00,
2013-01-11 05:12:00,31.6,30.6,29.41,NNE,24,0.0,0.0,96,0.00,,---,0.00,VWS V14.01,2013-01-11 13:12:00,
2013-01-11 05:17:00,31.3,30.3,29.41,NNE,24,0.0,0.0,96,0.00,,---,0.00,VWS V14.01,2013-01-11 13:17:00,
2013-01-11 05:22:00,31.1,29.8,29.44,NNE,24,0.0,0.0,95,0.00,,---,0.00,VWS V14.01,2013-01-11 13:22:00,
2013-01-11 05:27:00,30.9,29.7,29.44,NNE,24,0.0,0.0,95,0.00,,---,0.00,VWS V14.01,2013-01-11 13:27:00,
2013-01-11 05:32:00,30.6,29.3,29.44,NNE,24,0.0,0.0,95,0.00,,---,0.00,VWS V14.01,2013-01-11 13:32:00,
2013-01-11 05:37:00,30.4,29.1,29.44,NNE,24,0.0,0.0,95,0.00,,---,0.00,VWS V14.01,2013-01-11 13:37:00,
2013-01-11 05:42:00,30.2,28.9,29.44,NNE,24,0.0,0.0,95,0.00,,---,0.00,VWS V14.01,2013-01-11 13:42:00,
2013-01-11 05:47:00,30.0,28.8,29.44,NNE,24,0.0,0.0,95,0.00,,---,0.00,VWS V14.01,2013-01-11 13:47:00,
2013-01-11 05:52:00,29.8,28.6,29.44,NNE,24,0.0,0.0,95,0.00,,---,0.00,VWS V14.01,2013-01-11 13:52:00,
2013-01-11 05:57:00,29.8,28.6,29.44,NNE,24,0.0,0.0,95,0.00,,---,0.00,VWS V14.01,2013-01-11 13:57:00,
2013-01-11 06:02:00,29.7,28.4,29.44,NNE,24,0.0,0.0,95,0.00,,---,0.00,VWS V14.01,2013-01-11 14:02:00,
2013-01-11 06:07:00,29.5,28.2,29.44,NNE,24,0.0,0.0,95,0.00,,---,0.00,VWS V14.01,2013-01-11 14:07:00,
2013-01-11 06:12:00,29.3,28.0,29.44,NNE,24,0.0,0.0,95,0.00,,---,0.00,VWS V14.01,2013-01-11 14:12:00,
2013-01-11 06:17:00,29.3,28.0,29.44,NNE,24,0.0,0.0,95,0.00,,---,0.00,VWS V14.01,2013-01-11 14:17:00,
2013-01-11 06:22:00,29.1,27.9,29.44,NNE,24,0.0,0.0,95,0.00,,---,0.00,VWS V14.01,2013-01-11 14:22:00,
2013-01-11 06:27:00,29.1,27.9,29.44,NNE,24,0.0,0.0,95,0.00,,---,0.00,VWS V14.01,2013-01-11 14:27:00,
2013-01-11 06:32:00,29.1,27.9,29.44,NNE,24,0.0,0.0,95,0.00,,---,0.00,VWS V14.01,2013-01-11 14:32:00,
2013-01-11 06:37:00,28.9,27.7,29.44,NNE,24,0.0,0.0,95,0.00,,---,0.00,VWS V14.01,2013-01-11 14:37:00,
2013-01-11 06:42:00,28.8,27.5,29.44,NNE,24,0.0,0.0,95,0.00,,---,0.00,VWS V14.01,2013-01-11 14:42:00,
2013-01-11 06:47:00,28.8,27.5,29.44,NNE,24,0.0,0.0,95,0.00,,---,0.00,VWS V14.01,2013-01-11 14:47:00,
2013-01-11 06:52:00,28.6,27.3,29.44,NNE,24,0.0,0.0,95,0.00,,---,0.00,VWS V14.01,2013-01-11 14:52:00,
2013-01-11 06:57:00,28.6,27.3,29.44,NNE,24,0.0,0.0,95,0.00,,---,0.00,VWS V14.01,2013-01-11 14:57:00,
2013-01-11 07:02:00,28.4,27.4,29.44,NNE,24,0.0,0.0,96,0.00,,---,0.00,VWS V14.01,2013-01-11 15:02:00,
2013-01-11 07:07:00,28.2,27.2,29.47,NNE,24,0.0,0.0,96,0.00,,---,0.00,VWS V14.01,2013-01-11 15:07:00,
2013-01-11 07:12:00,28.2,27.2,29.47,NNE,24,0.0,0.0,96,0.00,,---,0.00,VWS V14.01,2013-01-11 15:12:00,
2013-01-11 07:17:00,28.2,27.2,29.47,NNE,24,0.0,0.0,96,0.00,,---,0.00,VWS V14.01,2013-01-11 15:17:00,
2013-01-11 07:22:00,28.4,27.4,29.47,NNE,24,0.0,0.0,96,0.00,,---,0.00,VWS V14.01,2013-01-11 15:22:00,
2013-01-11 07:27:00,28.4,27.4,29.47,NNE,24,0.0,0.0,96,0.00,,---,0.00,VWS V14.01,2013-01-11 15:27:00,
2013-01-11 07:32:00,28.4,27.4,29.47,NNE,24,0.0,0.0,96,0.00,,---,0.00,VWS V14.01,2013-01-11 15:32:00,
2013-01-11 07:37:00,28.4,27.4,29.47,NNE,24,0.0,0.0,96,0.00,,---,0.00,VWS V14.01,2013-01-11 15:37:00,
2013-01-11 07:42:00,28.6,27.6,29.47,NNE,24,0.0,0.0,96,0.00,,---,0.00,VWS V14.01,2013-01-11 15:42:00,
2013-01-11 07:47:00,28.6,27.6,29.47,NNE,24,0.0,0.0,96,0.00,,---,0.00,VWS V14.01,2013-01-11 15:47:00,
2013-01-11 07:52:00,28.8,27.8,29.47,NNE,24,0.0,0.0,96,0.00,,---,0.00,VWS V14.01,2013-01-11 15:52:00,
2013-01-11 07:57:00,29.1,28.1,29.47,NNE,24,0.0,0.0,96,0.00,,---,0.00,VWS V14.01,2013-01-11 15:57:00,
2013-01-11 08:02:00,29.5,28.7,29.47,NNE,24,0.0,0.0,97,0.00,,---,0.00,VWS V14.01,2013-01-11 16:02:00,
2013-01-11 08:07:00,29.7,28.9,29.50,NNE,24,0.0,0.0,97,0.00,,---,0.00,VWS V14.01,2013-01-11 16:07:00,
2013-01-11 08:12:00,30.0,29.3,29.50,NNE,24,0.0,0.0,97,0.00,,---,0.00,VWS V14.01,2013-01-11 16:12:00,
2013-01-11 08:17:00,30.2,29.5,29.50,NNE,24,0.0,0.0,97,0.00,,---,0.00,VWS V14.01,2013-01-11 16:17:00,
2013-01-11 08:22:00,30.4,29.6,29.50,NNE,24,0.0,0.0,97,0.00,,---,0.00,VWS V14.01,2013-01-11 16:22:00,
2013-01-11 08:27:00,30.4,29.6,29.50,NNE,24,0.0,0.0,97,0.00,,---,0.00,VWS V14.01,2013-01-11 16:27:00,
2013-01-11 08:32:00,30.4,29.6,29.50,NNE,24,0.0,0.0,97,0.00,,---,0.00,VWS V14.01,2013-01-11 16:32:00,
2013-01-11 08:37:00,30.4,29.6,29.50,NNE,24,0.0,0.0,97,0.00,,---,0.00,VWS V14.01,2013-01-11 16:37:00,
2013-01-11 08:42:00,30.2,29.5,29.50,NNE,24,0.0,0.0,97,0.00,,---,0.00,VWS V14.01,2013-01-11 16:42:00,
2013-01-11 08:47:00,30.2,29.5,29.50,NNE,24,0.0,0.0,97,0.00,,---,0.00,VWS V14.01,2013-01-11 16:47:00,
2013-01-11 08:52:00,30.2,29.5,29.50,NNE,24,0.0,0.0,97,0.00,,---,0.00,VWS V14.01,2013-01-11 16:52:00,
2013-01-11 08:57:00,30.2,29.5,29.50,NNE,24,0.0,0.0,97,0.00,,---,0.00,VWS V14.01,2013-01-11 16:57:00,
2013-01-11 09:02:00,30.4,29.6,29.50,NNE,24,0.0,0.0,97,0.00,,---,0.00,VWS V14.01,2013-01-11 17:02:00,
2013-01-11 09:07:00,30.6,29.8,29.53,NNE,24,0.0,0.0,97,0.00,,---,0.00,VWS V14.01,2013-01-11 17:07:00,
2013-01-11 09:12:00,30.9,30.2,29.53,NNE,24,0.0,0.0,97,0.00,,---,0.00,VWS V14.01,2013-01-11 17:12:00,
2013-01-11 09:17:00,31.1,30.4,29.53,NNE,24,0.0,0.0,97,0.00,,---,0.00,VWS V14.01,2013-01-11 17:17:00,
2013-01-11 09:22:00,31.3,30.5,29.53,NNE,24,0.0,0.0,97,0.00,,---,0.00,VWS V14.01,2013-01-11 17:22:00,
2013-01-11 09:27:00,31.6,30.9,29.53,NNE,24,0.0,0.0,97,0.00,,---,0.00,VWS V14.01,2013-01-11 17:27:00,
2013-01-11 09:32:00,31.8,31.1,29.53,NNE,24,0.0,0.0,97,0.00,,---,0.00,VWS V14.01,2013-01-11 17:32:00,
2013-01-11 09:37:00,31.8,31.1,29.53,NNE,24,0.0,0.0,97,0.00,,---,0.00,VWS V14.01,2013-01-11 17:37:00,
2013-01-11 09:42:00,32.0,31.2,29.53,NNE,24,0.0,0.0,97,0.00,,---,0.00,VWS V14.01,2013-01-11 17:42:00,
2013-01-11 09:47:00,32.2,31.4,29.53,NNE,24,0.0,0.0,97,0.00,,---,0.00,VWS V14.01,2013-01-11 17:47:00,
2013-01-11 09:52:00,32.2,31.4,29.53,NNE,24,0.0,0.0,97,0.00,,---,0.00,VWS V14.01,2013-01-11 17:52:00,
2013-01-11 09:57:00,32.4,31.6,29.53,NNE,24,0.0,0.0,97,0.00,,---,0.00,VWS V14.01,2013-01-11 17:57:00,
2013-01-11 10:02:00,32.5,31.8,29.53,NNE,24,0.0,0.0,97,0.00,,---,0.00,VWS V14.01,2013-01-11 18:02:00,
2013-01-11 10:07:00,32.7,32.0,29.53,NNE,24,0.0,0.0,97,0.00,,---,0.00,VWS V14.01,2013-01-11 18:07:00,
2013-01-11 10:12:00,32.7,32.0,29.53,NNE,24,0.0,0.0,97,0.00,,---,0.00,VWS V14.01,2013-01-11 18:12:00,
2013-01-11 10:17:00,32.9,32.1,29.53,NNE,24,0.0,0.0,97,0.00,,---,0.00,VWS V14.01,2013-01-11 18:17:00,
2013-01-11 10:22:00,33.1,32.6,29.53,NNE,24,0.0,0.0,98,0.00,,---,0.00,VWS V14.01,2013-01-11 18:22:00,
2013-01-11 10:27:00,33.3,32.8,29.53,NNE,24,0.0,0.0,98,0.00,,---,0.00,VWS V14.01,2013-01-11 18:27:00,
2013-01-11 10:32:00,33.4,32.9,29.53,NNE,24,0.0,0.0,98,0.00,,---,0.00,VWS V14.01,2013-01-11 18:32:00,
2013-01-11 10:37:00,33.6,33.1,29.53,NNE,24,0.0,0.0,98,0.00,,---,0.00,VWS V14.01,2013-01-11 18:37:00,
2013-01-11 10:42:00,33.8,33.0,29.53,NNE,24,0.0,0.0,97,0.00,,---,0.00,VWS V14.01,2013-01-11 18:42:00,
2013-01-11 10:47:00,34.2,33.7,29.53,NNE,24,0.0,0.0,98,0.00,,---,0.00,VWS V14.01,2013-01-11 18:47:00,
2013-01-11 10:52:00,34.5,34.0,29.53,NNE,24,0.0,0.0,98,0.00,,---,0.00,VWS V14.01,2013-01-11 18:52:00,
2013-01-11 10:57:00,34.5,34.0,29.53,NNE,24,0.0,0.0,98,0.00,,---,0.00,VWS V14.01,2013-01-11 18:57:00,
2013-01-11 11:02:00,34.7,34.2,29.53,NNE,24,0.0,0.0,98,0.00,,---,0.00,VWS V14.01,2013-01-11 19:02:00,
2013-01-11 11:07:00,34.7,34.2,29.56,NNE,25,0.0,0.0,98,0.00,,---,0.00,VWS V14.01,2013-01-11 19:07:00,
2013-01-11 11:12:00,34.9,34.4,29.56,NNE,25,0.0,0.0,98,0.00,,---,0.00,VWS V14.01,2013-01-11 19:12:00,
2013-01-11 11:17:00,35.1,34.5,29.56,NNE,24,0.0,0.0,98,0.00,,---,0.00,VWS V14.01,2013-01-11 19:17:00,
2013-01-11 11:22:00,35.2,34.7,29.53,NNE,25,0.0,0.0,98,0.00,,---,0.00,VWS V14.01,2013-01-11 19:22:00,
2013-01-11 11:27:00,35.4,34.9,29.53,NNE,24,0.0,0.0,98,0.00,,---,0.00,VWS V14.01,2013-01-11 19:27:00,
2013-01-11 11:32:00,35.8,35.3,29.53,NNE,22,0.0,0.0,98,0.00,,---,0.00,VWS V14.01,2013-01-11 19:32:00,
2013-01-11 11:37:00,36.0,35.5,29.53,NNE,25,0.0,0.0,98,0.00,,---,0.00,VWS V14.01,2013-01-11 19:37:00,
2013-01-11 11:42:00,36.1,35.6,29.53,NNE,25,0.0,0.0,98,0.00,,---,0.00,VWS V14.01,2013-01-11 19:42:00,
2013-01-11 11:47:00,36.1,35.6,29.53,NNE,26,0.0,2.2,98,0.00,,---,0.00,VWS V14.01,2013-01-11 19:47:00,
2013-01-11 11:52:00,36.0,35.5,29.53,NNW,346,0.0,2.2,98,0.00,,---,0.00,VWS V14.01,2013-01-11 19:52:00,
2013-01-11 11:57:00,36.0,35.5,29.53,NNE,30,0.0,3.1,98,0.00,,---,0.00,VWS V14.01,2013-01-11 19:57:00,
2013-01-11 12:02:00,36.1,35.6,29.53,NNE,30,2.7,2.7,98,0.00,,---,0.00,VWS V14.01,2013-01-11 20:02:00,
2013-01-11 12:07:00,36.3,35.8,29.53,NE,36,0.0,2.2,98,0.00,,---,0.00,VWS V14.01,2013-01-11 20:07:00,
2013-01-11 12:12:00,36.0,35.2,29.53,NE,36,0.0,0.0,97,0.00,,---,0.00,VWS V14.01,2013-01-11 20:12:00,
2013-01-11 12:17:00,35.8,35.0,29.53,NE,36,0.0,0.0,97,0.00,,---,0.00,VWS V14.01,2013-01-11 20:17:00,
2013-01-11 12:22:00,35.8,35.0,29.53,NE,36,0.0,0.0,97,0.00,,---,0.00,VWS V14.01,2013-01-11 20:22:00,
2013-01-11 12:27:00,35.8,35.0,29.53,NE,37,0.0,0.0,97,0.00,,---,0.00,VWS V14.01,2013-01-11 20:27:00,
2013-01-11 12:32:00,36.0,35.2,29.53,NE,38,0.0,0.0,97,0.00,,---,0.00,VWS V14.01,2013-01-11 20:32:00,
2013-01-11 12:37:00,36.3,35.5,29.56,NE,40,0.0,0.0,97,0.00,,---,0.00,VWS V14.01,2013-01-11 20:37:00,
2013-01-11 12:42:00,36.5,35.7,29.56,NE,41,0.0,0.0,97,0.00,,---,0.00,VWS V14.01,2013-01-11 20:42:00,
2013-01-11 12:47:00,36.7,35.9,29.56,NE,41,2.2,2.2,97,0.00,,---,0.00,VWS V14.01,2013-01-11 20:47:00,
2013-01-11 12:52:00,36.7,35.9,29.53,NE,41,0.0,2.2,97,0.00,,---,0.00,VWS V14.01,2013-01-11 20:52:00,
2013-01-11 12:57:00,36.7,35.9,29.53,NE,41,0.0,0.0,97,0.00,,---,0.00,VWS V14.01,2013-01-11 20:57:00,
2013-01-11 13:02:00,36.7,35.9,29.53,NE,41,0.0,0.0,97,0.00,,---,0.00,VWS V14.01,2013-01-11 21:02:00,
2013-01-11 13:07:00,36.7,35.9,29.56,NE,41,0.0,0.0,97,0.00,,---,0.00,VWS V14.01,2013-01-11 21:07:00,
2013-01-11 13:12:00,36.5,35.5,29.56,NE,41,0.0,0.0,96,0.00,,---,0.00,VWS V14.01,2013-01-11 21:12:00,
2013-01-11 13:17:00,36.7,35.7,29.56,NE,41,0.0,0.0,96,0.00,,---,0.00,VWS V14.01,2013-01-11 21:17:00,
2013-01-11 13:22:00,37.2,36.2,29.56,NE,41,0.0,0.0,96,0.00,,---,0.00,VWS V14.01,2013-01-11 21:22:00,
2013-01-11 13:27:00,37.9,36.9,29.56,NE,41,0.0,0.0,96,0.00,,---,0.00,VWS V14.01,2013-01-11 21:27:00,
2013-01-11 13:32:00,38.1,36.8,29.56,NE,41,0.0,0.0,95,0.00,,---,0.00,VWS V14.01,2013-01-11 21:32:00,
2013-01-11 13:37:00,38.8,37.5,29.56,NE,41,0.0,0.0,95,0.00,,---,0.00,VWS V14.01,2013-01-11 21:37:00,
2013-01-11 13:42:00,39.7,38.2,29.56,NE,41,0.0,0.0,94,0.00,,---,0.00,VWS V14.01,2013-01-11 21:42:00,
2013-01-11 13:47:00,40.3,38.4,29.56,NE,41,0.0,0.0,93,0.00,,---,0.00,VWS V14.01,2013-01-11 21:47:00,
2013-01-11 13:52:00,39.9,37.5,29.56,NE,39,0.0,0.0,91,0.00,,---,0.00,VWS V14.01,2013-01-11 21:52:00,
2013-01-11 13:57:00,40.3,37.3,29.56,NE,39,0.0,0.0,89,0.00,,---,0.00,VWS V14.01,2013-01-11 21:57:00,
2013-01-11 14:02:00,41.0,37.1,29.56,NE,39,0.0,0.0,86,0.00,,---,0.00,VWS V14.01,2013-01-11 22:02:00,
2013-01-11 14:07:00,41.7,37.5,29.56,NE,39,0.0,0.0,85,0.00,,---,0.00,VWS V14.01,2013-01-11 22:07:00,
2013-01-11 14:12:00,42.3,37.2,29.56,NE,39,0.0,0.0,82,0.00,,---,0.00,VWS V14.01,2013-01-11 22:12:00,
2013-01-11 14:17:00,42.4,36.4,29.56,NE,39,0.0,0.0,79,0.00,,---,0.00,VWS V14.01,2013-01-11 22:17:00,
2013-01-11 14:22:00,42.6,35.3,29.56,NE,39,0.0,0.0,75,0.00,,---,0.00,VWS V14.01,2013-01-11 22:22:00,
2013-01-11 14:27:00,42.8,34.1,29.56,NE,39,0.0,0.0,71,0.00,,---,0.00,VWS V14.01,2013-01-11 22:27:00,
2013-01-11 14:32:00,42.8,33.7,29.56,NE,39,0.0,0.0,70,0.00,,---,0.00,VWS V14.01,2013-01-11 22:32:00,
2013-01-11 14:37:00,42.4,33.0,29.56,NE,39,0.0,0.0,69,0.00,,---,0.00,VWS V14.01,2013-01-11 22:37:00,
2013-01-11 14:42:00,42.3,31.7,29.56,NE,39,0.0,0.0,66,0.00,,---,0.00,VWS V14.01,2013-01-11 22:42:00,
2013-01-11 14:47:00,42.1,30.4,29.56,NE,39,0.0,0.0,63,0.00,,---,0.00,VWS V14.01,2013-01-11 22:47:00,
2013-01-11 14:52:00,41.4,29.3,29.56,NE,39,0.0,0.0,62,0.00,,---,0.00,VWS V14.01,2013-01-11 22:52:00,
2013-01-11 14:57:00,40.6,28.3,29.56,NE,39,0.0,0.0,61,0.00,,---,0.00,VWS V14.01,2013-01-11 22:57:00,
2013-01-11 15:02:00,40.1,26.9,29.56,NE,40,0.0,0.0,59,0.00,,---,0.00,VWS V14.01,2013-01-11 23:02:00,
2013-01-11 15:07:00,39.7,26.6,29.56,NE,40,0.0,0.0,59,0.00,,---,0.00,VWS V14.01,2013-01-11 23:07:00,
2013-01-11 15:12:00,39.4,26.3,29.56,NE,40,0.0,0.0,59,0.00,,---,0.00,VWS V14.01,2013-01-11 23:12:00,
2013-01-11 15:17:00,39.0,25.9,29.56,NE,40,0.0,0.0,59,0.00,,---,0.00,VWS V14.01,2013-01-11 23:17:00,
2013-01-11 15:22:00,38.8,26.2,29.56,NE,40,0.0,0.0,60,0.00,,---,0.00,VWS V14.01,2013-01-11 23:22:00,
2013-01-11 15:26:00,38.8,26.6,29.56,NE,40,0.0,0.0,61,0.00,,---,0.00,VWS V14.01,2013-01-11 23:26:00,
2013-01-11 15:31:00,38.8,27.3,29.56,NE,40,0.0,0.0,63,0.00,,---,0.00,VWS V14.01,2013-01-11 23:31:00,
2013-01-11 15:36:00,38.8,27.3,29.56,NE,40,0.0,0.0,63,0.00,,---,0.00,VWS V14.01,2013-01-11 23:36:00,
2013-01-11 15:41:00,38.8,27.3,29.56,NE,40,0.0,0.0,63,0.00,,---,0.00,VWS V14.01,2013-01-11 23:41:00,
2013-01-11 15:46:00,38.7,27.2,29.56,NE,39,0.0,0.0,63,0.00,,---,0.00,VWS V14.01,2013-01-11 23:46:00,
2013-01-11 15:51:00,38.3,26.8,29.59,NE,39,0.0,0.0,63,0.00,,---,0.00,VWS V14.01,2013-01-11 23:51:00,
2013-01-11 15:56:00,37.9,26.1,29.59,NE,39,0.0,0.0,62,0.00,,---,0.00,VWS V14.01,2013-01-11 23:56:00,
2013-01-11 16:01:00,37.6,25.8,29.59,NE,39,0.0,0.0,62,0.00,,---,0.00,VWS V14.01,2013-01-12 00:01:00,
2013-01-11 16:06:00,37.4,26.0,29.56,NE,39,0.0,0.0,63,0.00,,---,0.00,VWS V14.01,2013-01-12 00:06:00,
2013-01-11 16:11:00,37.2,26.2,29.56,NE,39,0.0,0.0,64,0.00,,---,0.00,VWS V14.01,2013-01-12 00:11:00,
2013-01-11 16:16:00,36.9,25.1,29.56,NE,39,0.0,0.0,62,0.00,,---,0.00,VWS V14.01,2013-01-12 00:16:00,
2013-01-11 16:21:00,36.7,24.9,29.56,NE,39,0.0,0.0,62,0.00,,---,0.00,VWS V14.01,2013-01-12 00:21:00,
2013-01-11 16:26:00,36.3,24.6,29.56,NE,39,0.0,0.0,62,0.00,,---,0.00,VWS V14.01,2013-01-12 00:26:00,
2013-01-11 16:31:00,36.0,24.2,29.56,NE,39,0.0,0.0,62,0.00,,---,0.00,VWS V14.01,2013-01-12 00:31:00,
2013-01-11 16:36:00,35.6,23.9,29.56,NE,39,0.0,0.0,62,0.00,,---,0.00,VWS V14.01,2013-01-12 00:36:00,
2013-01-11 16:41:00,35.1,23.8,29.56,NE,39,0.0,0.0,63,0.00,,---,0.00,VWS V14.01,2013-01-12 00:41:00,
2013-01-11 16:46:00,34.7,23.8,29.56,NE,39,0.0,0.0,64,0.00,,---,0.00,VWS V14.01,2013-01-12 00:46:00,
2013-01-11 16:51:00,34.3,23.4,29.59,NE,39,0.0,0.0,64,0.00,,---,0.00,VWS V14.01,2013-01-12 00:51:00,
2013-01-11 16:56:00,34.0,23.5,29.59,NE,39,0.0,0.0,65,0.00,,---,0.00,VWS V14.01,2013-01-12 00:56:00,
2013-01-11 17:01:00,33.6,23.5,29.59,NE,39,0.0,0.0,66,0.00,,---,0.00,VWS V14.01,2013-01-12 01:01:00,
2013-01-11 17:06:00,33.3,23.1,29.59,NE,39,0.0,0.0,66,0.00,,---,0.00,VWS V14.01,2013-01-12 01:06:00,
2013-01-11 17:11:00,32.9,23.2,29.56,NE,39,0.0,0.0,67,0.00,,---,0.00,VWS V14.01,2013-01-12 01:11:00,
2013-01-11 17:16:00,32.5,22.8,29.56,NE,39,0.0,0.0,67,0.00,,---,0.00,VWS V14.01,2013-01-12 01:16:00,
2013-01-11 17:21:00,32.2,22.8,29.59,NE,39,0.0,0.0,68,0.00,,---,0.00,VWS V14.01,2013-01-12 01:21:00,
2013-01-11 17:26:00,31.8,22.5,29.59,NE,39,0.0,0.0,68,0.00,,---,0.00,VWS V14.01,2013-01-12 01:26:00,
2013-01-11 17:31:00,31.3,22.3,29.59,NE,39,0.0,0.0,69,0.00,,---,0.00,VWS V14.01,2013-01-12 01:31:00,
2013-01-11 17:36:00,30.9,22.0,29.59,NE,39,0.0,0.0,69,0.00,,---,0.00,VWS V14.01,2013-01-12 01:36:00,
2013-01-11 17:41:00,30.7,22.1,29.59,NE,39,0.0,0.0,70,0.00,,---,0.00,VWS V14.01,2013-01-12 01:41:00,
2013-01-11 17:46:00,30.6,22.3,29.59,NE,39,0.0,0.0,71,0.00,,---,0.00,VWS V14.01,2013-01-12 01:46:00,
2013-01-11 17:51:00,30.4,22.1,29.59,NE,39,0.0,0.0,71,0.00,,---,0.00,VWS V14.01,2013-01-12 01:51:00,
2013-01-11 17:56:00,30.2,22.3,29.59,NE,39,0.0,0.0,72,0.00,,---,0.00,VWS V14.01,2013-01-12 01:56:00,
2013-01-11 18:01:00,30.0,22.4,29.59,NE,39,0.0,0.0,73,0.00,,---,0.00,VWS V14.01,2013-01-12 02:01:00,
2013-01-11 18:06:00,30.0,22.8,29.59,NE,39,0.0,0.0,74,0.00,,---,0.00,VWS V14.01,2013-01-12 02:06:00,
2013-01-11 18:11:00,29.8,22.6,29.59,NE,39,0.0,0.0,74,0.00,,---,0.00,VWS V14.01,2013-01-12 02:11:00,
2013-01-11 18:16:00,29.7,22.7,29.59,NE,39,0.0,0.0,75,0.00,,---,0.00,VWS V14.01,2013-01-12 02:16:00,
2013-01-11 18:21:00,29.5,22.5,29.59,NE,39,0.0,0.0,75,0.00,,---,0.00,VWS V14.01,2013-01-12 02:21:00,
2013-01-11 18:26:00,29.3,22.4,29.59,NE,39,0.0,0.0,75,0.00,,---,0.00,VWS V14.01,2013-01-12 02:26:00,
2013-01-11 18:31:00,29.3,22.4,29.59,NE,39,0.0,0.0,75,0.00,,---,0.00,VWS V14.01,2013-01-12 02:31:00,
2013-01-11 18:36:00,29.1,22.5,29.59,NE,39,0.0,0.0,76,0.00,,---,0.00,VWS V14.01,2013-01-12 02:36:00,
2013-01-11 18:41:00,28.9,22.3,29.59,NE,39,0.0,0.0,76,0.00,,---,0.00,VWS V14.01,2013-01-12 02:41:00,
2013-01-11 18:46:00,28.8,22.2,29.59,NE,39,0.0,0.0,76,0.00,,---,0.00,VWS V14.01,2013-01-12 02:46:00,
2013-01-11 18:51:00,28.8,22.2,29.59,NE,39,0.0,0.0,76,0.00,,---,0.00,VWS V14.01,2013-01-12 02:51:00,
2013-01-11 18:56:00,28.6,22.3,29.59,NE,39,0.0,0.0,77,0.00,,---,0.00,VWS V14.01,2013-01-12 02:56:00,
2013-01-11 19:01:00,28.6,22.3,29.59,NE,39,0.0,0.0,77,0.00,,---,0.00,VWS V14.01,2013-01-12 03:01:00,
2013-01-11 19:06:00,28.6,22.3,29.59,NE,39,0.0,0.0,77,0.00,,---,0.00,VWS V14.01,2013-01-12 03:06:00,
2013-01-11 19:11:00,28.4,22.4,29.59,NE,39,0.0,0.0,78,0.00,,---,0.00,VWS V14.01,2013-01-12 03:11:00,
2013-01-11 19:16:00,28.4,22.4,29.59,NE,39,0.0,0.0,78,0.00,,---,0.00,VWS V14.01,2013-01-12 03:16:00,
2013-01-11 19:21:00,28.0,22.1,29.59,NE,39,0.0,0.0,78,0.00,,---,0.00,VWS V14.01,2013-01-12 03:21:00,
2013-01-11 19:26:00,28.0,22.1,29.59,NE,39,0.0,0.0,78,0.00,,---,0.00,VWS V14.01,2013-01-12 03:26:00,
2013-01-11 19:31:00,27.9,21.9,29.59,NE,39,0.0,0.0,78,0.00,,---,0.00,VWS V14.01,2013-01-12 03:31:00,
2013-01-11 19:36:00,27.9,21.9,29.59,NE,39,0.0,0.0,78,0.00,,---,0.00,VWS V14.01,2013-01-12 03:36:00,
2013-01-11 19:41:00,27.7,22.0,29.59,NE,39,0.0,0.0,79,0.00,,---,0.00,VWS V14.01,2013-01-12 03:41:00,
2013-01-11 19:46:00,27.5,21.9,29.59,NE,39,0.0,0.0,79,0.00,,---,0.00,VWS V14.01,2013-01-12 03:46:00,
2013-01-11 19:51:00,27.7,22.0,29.59,NE,39,0.0,0.0,79,0.00,,---,0.00,VWS V14.01,2013-01-12 03:51:00,
2013-01-11 19:56:00,27.7,22.0,29.59,NE,39,0.0,0.0,79,0.00,,---,0.00,VWS V14.01,2013-01-12 03:56:00,
2013-01-11 20:01:00,27.7,22.0,29.59,NE,39,0.0,0.0,79,0.00,,---,0.00,VWS V14.01,2013-01-12 04:01:00,
2013-01-11 20:06:00,27.5,21.9,29.59,NE,39,0.0,0.0,79,0.00,,---,0.00,VWS V14.01,2013-01-12 04:06:00,
2013-01-11 20:11:00,27.5,22.1,29.59,NE,39,0.0,0.0,80,0.00,,---,0.00,VWS V14.01,2013-01-12 04:11:00,
2013-01-11 20:16:00,27.1,21.8,29.59,NE,39,0.0,0.0,80,0.00,,---,0.00,VWS V14.01,2013-01-12 04:16:00,
2013-01-11 20:21:00,27.1,21.8,29.59,NE,39,0.0,0.0,80,0.00,,---,0.00,VWS V14.01,2013-01-12 04:21:00,
2013-01-11 20:26:00,27.1,21.8,29.59,NE,39,0.0,0.0,80,0.00,,---,0.00,VWS V14.01,2013-01-12 04:26:00,
2013-01-11 20:31:00,27.1,21.8,29.59,NE,39,0.0,0.0,80,0.00,,---,0.00,VWS V14.01,2013-01-12 04:31:00,
2013-01-11 20:36:00,27.1,21.8,29.59,NE,39,0.0,0.0,80,0.00,,---,0.00,VWS V14.01,2013-01-12 04:36:00,
2013-01-11 20:41:00,27.1,22.1,29.59,NE,39,0.0,0.0,81,0.00,,---,0.00,VWS V14.01,2013-01-12 04:41:00,
2013-01-11 20:46:00,27.1,22.1,29.59,NE,39,0.0,0.0,81,0.00,,---,0.00,VWS V14.01,2013-01-12 04:46:00,
2013-01-11 20:51:00,27.0,21.9,29.59,NE,39,0.0,0.0,81,0.00,,---,0.00,VWS V14.01,2013-01-12 04:51:00,
2013-01-11 20:56:00,27.0,21.9,29.59,NE,39,0.0,0.0,81,0.00,,---,0.00,VWS V14.01,2013-01-12 04:56:00,
2013-01-11 21:00:00,27.1,22.4,29.59,NE,39,0.0,0.0,82,0.00,,---,0.00,VWS V14.01,2013-01-12 05:00:00,
2013-01-11 21:01:00,27.1,22.4,29.59,NE,39,0.0,0.0,82,0.00,,---,0.00,VWS V14.01,2013-01-12 05:01:00,
2013-01-11 21:02:00,27.1,22.4,29.59,NE,39,0.0,0.0,82,0.00,,---,0.00,VWS V14.01,2013-01-12 05:02:00,
2013-01-11 21:07:00,27.1,22.4,29.59,NE,39,0.0,0.0,82,0.00,,---,0.00,VWS V14.01,2013-01-12 05:07:00,
2013-01-11 21:12:00,27.3,22.6,29.59,NE,39,0.0,0.0,82,0.00,,---,0.00,VWS V14.01,2013-01-12 05:12:00,
2013-01-11 21:17:00,27.3,22.9,29.59,NE,39,0.0,0.0,83,0.00,,---,0.00,VWS V14.01,2013-01-12 05:17:00,
2013-01-11 21:22:00,27.3,22.9,29.59,NE,39,0.0,0.0,83,0.00,,---,0.00,VWS V14.01,2013-01-12 05:22:00,
2013-01-11 21:27:00,27.5,23.0,29.59,NE,39,0.0,0.0,83,0.00,,---,0.00,VWS V14.01,2013-01-12 05:27:00,
2013-01-11 21:32:00,27.9,23.7,29.59,NE,39,0.0,0.0,84,0.00,,---,0.00,VWS V14.01,2013-01-12 05:32:00,
2013-01-11 21:37:00,28.0,23.8,29.59,NE,39,0.0,0.0,84,0.00,,---,0.00,VWS V14.01,2013-01-12 05:37:00,
2013-01-11 21:42:00,28.2,24.3,29.59,NE,39,0.0,0.0,85,0.00,,---,0.00,VWS V14.01,2013-01-12 05:42:00,
2013-01-11 21:47:00,28.2,24.3,29.59,NE,39,0.0,0.0,85,0.00,,---,0.00,VWS V14.01,2013-01-12 05:47:00,
2013-01-11 21:52:00,28.2,24.3,29.59,NE,39,0.0,0.0,85,0.00,,---,0.00,VWS V14.01,2013-01-12 05:52:00,
2013-01-11 21:57:00,28.2,24.3,29.59,NE,39,0.0,0.0,85,0.00,,---,0.00,VWS V14.01,2013-01-12 05:57:00,
2013-01-11 22:02:00,28.2,24.3,29.59,NE,39,0.0,0.0,85,0.00,,---,0.00,VWS V14.01,2013-01-12 06:02:00,
2013-01-11 22:07:00,28.0,24.1,29.59,NE,39,0.0,0.0,85,0.00,,---,0.00,VWS V14.01,2013-01-12 06:07:00,
2013-01-11 22:12:00,27.9,24.0,29.59,NE,39,0.0,0.0,85,0.00,,---,0.00,VWS V14.01,2013-01-12 06:12:00,
2013-01-11 22:17:00,27.7,23.8,29.59,NE,39,0.0,0.0,85,0.00,,---,0.00,VWS V14.01,2013-01-12 06:17:00,
2013-01-11 22:22:00,27.3,23.1,29.59,NE,39,0.0,0.0,84,0.00,,---,0.00,VWS V14.01,2013-01-12 06:22:00,
2013-01-11 22:26:00,27.3,23.4,29.59,NE,39,0.0,0.0,85,0.00,,---,0.00,VWS V14.01,2013-01-12 06:26:00,
2013-01-11 22:31:00,27.5,23.6,29.59,NE,39,0.0,0.0,85,0.00,,---,0.00,VWS V14.01,2013-01-12 06:31:00,
2013-01-11 22:36:00,27.7,23.8,29.59,NE,39,0.0,0.0,85,0.00,,---,0.00,VWS V14.01,2013-01-12 06:36:00,
2013-01-11 22:41:00,27.9,24.2,29.59,NE,39,0.0,0.0,86,0.00,,---,0.00,VWS V14.01,2013-01-12 06:41:00,
2013-01-11 22:47:00,27.7,24.0,29.59,NE,39,0.0,0.0,86,0.00,,---,0.00,VWS V14.01,2013-01-12 06:47:00,
2013-01-11 22:52:00,27.5,23.9,29.59,NE,39,0.0,0.0,86,0.00,,---,0.00,VWS V14.01,2013-01-12 06:52:00,
2013-01-11 22:57:00,27.5,23.9,29.59,NE,39,0.0,0.0,86,0.00,,---,0.00,VWS V14.01,2013-01-12 06:57:00,
2013-01-11 23:01:00,27.5,23.9,29.59,NE,39,0.0,0.0,86,0.00,,---,0.00,VWS V14.01,2013-01-12 07:01:00,
2013-01-11 23:06:00,27.5,23.9,29.59,NE,39,0.0,0.0,86,0.00,,---,0.00,VWS V14.01,2013-01-12 07:06:00,
2013-01-11 23:11:00,27.5,23.9,29.59,NE,39,0.0,0.0,86,0.00,,---,0.00,VWS V14.01,2013-01-12 07:11:00,
2013-01-11 23:16:00,27.5,23.9,29.59,NE,39,0.0,0.0,86,0.00,,---,0.00,VWS V14.01,2013-01-12 07:16:00,
2013-01-11 23:21:00,27.5,23.9,29.59,NE,39,0.0,0.0,86,0.00,,---,0.00,VWS V14.01,2013-01-12 07:21:00,
2013-01-11 23:26:00,27.3,23.7,29.59,NE,39,0.0,0.0,86,0.00,,---,0.00,VWS V14.01,2013-01-12 07:26:00,
2013-01-11 23:31:00,27.0,23.3,29.59,NE,39,0.0,0.0,86,0.00,,---,0.00,VWS V14.01,2013-01-12 07:31:00,
2013-01-11 23:36:00,26.8,23.2,29.59,NE,39,0.0,0.0,86,0.00,,---,0.00,VWS V14.01,2013-01-12 07:36:00,
2013-01-11 23:41:00,26.6,23.0,29.59,NE,39,0.0,0.0,86,0.00,,---,0.00,VWS V14.01,2013-01-12 07:41:00,
2013-01-11 23:46:00,26.6,23.0,29.59,NE,39,0.0,0.0,86,0.00,,---,0.00,VWS V14.01,2013-01-12 07:46:00,
2013-01-11 23:51:00,27.0,23.3,29.59,NE,39,0.0,0.0,86,0.00,,---,0.00,VWS V14.01,2013-01-12 07:51:00,
2013-01-11 23:56:00,27.3,23.7,29.59,NE,39,0.0,0.0,86,0.00,,---,0.00,VWS V14.01,2013-01-12 07:56:00,